sensor_id;sensor_type;location;lat;lon;timestamp;P1;durP1;ratioP1;P2;durP2;ratioP2
4909;SDS011;2470;49.868;8.660;2022-10-16T00:01:45;1.35;;;1.13;;
4909;SDS011;2470;49.868;8.660;2022-10-16T00:04:11;0.73;;;0.73;;
4909;SDS011;2470;49.868;8.660;2022-10-16T00:06:37;1.52;;;1.35;;
4909;SDS011;2470;49.868;8.660;2022-10-16T00:09:03;1.33;;;1.23;;
4909;SDS011;2470;49.868;8.660;2022-10-16T00:11:33;1.95;;;1.27;;
4909;SDS011;2470;49.868;8.660;2022-10-16T00:14:02;5.07;;;1.48;;
4909;SDS011;2470;49.868;8.660;2022-10-16T00:16:30;1.25;;;1.15;;
4909;SDS011;2470;49.868;8.660;2022-10-16T00:18:56;1.77;;;1.33;;
4909;SDS011;2470;49.868;8.660;2022-10-16T00:21:23;1.20;;;1.10;;
4909;SDS011;2470;49.868;8.660;2022-10-16T00:23:51;1.20;;;1.10;;
4909;SDS011;2470;49.868;8.660;2022-10-16T00:26:17;1.73;;;1.20;;
4909;SDS011;2470;49.868;8.660;2022-10-16T00:28:47;0.80;;;0.80;;
4909;SDS011;2470;49.868;8.660;2022-10-16T00:31:13;1.10;;;1.00;;
4909;SDS011;2470;49.868;8.660;2022-10-16T00:33:40;1.40;;;1.30;;
4909;SDS011;2470;49.868;8.660;2022-10-16T00:36:06;1.23;;;1.05;;
4909;SDS011;2470;49.868;8.660;2022-10-16T00:38:34;1.20;;;1.15;;
4909;SDS011;2470;49.868;8.660;2022-10-16T00:41:00;1.60;;;1.20;;
4909;SDS011;2470;49.868;8.660;2022-10-16T00:46:27;1.42;;;1.10;;
4909;SDS011;2470;49.868;8.660;2022-10-16T00:49:03;0.90;;;0.90;;
4909;SDS011;2470;49.868;8.660;2022-10-16T00:51:41;1.02;;;1.00;;
4909;SDS011;2470;49.868;8.660;2022-10-16T00:54:10;1.30;;;1.20;;
4909;SDS011;2470;49.868;8.660;2022-10-16T00:56:40;0.90;;;0.85;;
4909;SDS011;2470;49.868;8.660;2022-10-16T00:59:07;2.35;;;1.27;;
4909;SDS011;2470;49.868;8.660;2022-10-16T01:01:41;2.00;;;1.20;;
4909;SDS011;2470;49.868;8.660;2022-10-16T01:04:07;2.38;;;1.50;;
4909;SDS011;2470;49.868;8.660;2022-10-16T01:06:36;5.82;;;1.00;;
4909;SDS011;2470;49.868;8.660;2022-10-16T01:12:27;1.00;;;0.90;;
4909;SDS011;2470;49.868;8.660;2022-10-16T01:15:18;0.95;;;0.90;;
4909;SDS011;2470;49.868;8.660;2022-10-16T01:20:58;0.90;;;0.90;;
4909;SDS011;2470;49.868;8.660;2022-10-16T01:30:13;1.02;;;0.98;;
4909;SDS011;2470;49.868;8.660;2022-10-16T01:32:20;0.80;;;0.80;;
4909;SDS011;2470;49.868;8.660;2022-10-16T01:35:09;0.70;;;0.70;;
4909;SDS011;2470;49.868;8.660;2022-10-16T01:38:25;0.80;;;0.80;;
4909;SDS011;2470;49.868;8.660;2022-10-16T01:40:35;1.35;;;0.90;;
4909;SDS011;2470;49.868;8.660;2022-10-16T01:43:46;1.00;;;0.90;;
4909;SDS011;2470;49.868;8.660;2022-10-16T01:45:56;1.13;;;0.90;;
4909;SDS011;2470;49.868;8.660;2022-10-16T01:48:23;1.10;;;1.00;;
4909;SDS011;2470;49.868;8.660;2022-10-16T01:50:52;1.00;;;0.98;;
4909;SDS011;2470;49.868;8.660;2022-10-16T01:53:21;1.00;;;0.90;;
4909;SDS011;2470;49.868;8.660;2022-10-16T01:55:48;1.00;;;0.90;;
4909;SDS011;2470;49.868;8.660;2022-10-16T01:58:17;1.75;;;1.15;;
4909;SDS011;2470;49.868;8.660;2022-10-16T02:00:43;1.02;;;0.93;;
4909;SDS011;2470;49.868;8.660;2022-10-16T02:03:12;1.20;;;1.10;;
4909;SDS011;2470;49.868;8.660;2022-10-16T02:05:49;0.70;;;0.70;;
4909;SDS011;2470;49.868;8.660;2022-10-16T02:08:21;0.90;;;0.90;;
4909;SDS011;2470;49.868;8.660;2022-10-16T02:10:48;1.40;;;1.00;;
4909;SDS011;2470;49.868;8.660;2022-10-16T02:13:19;1.25;;;1.15;;
4909;SDS011;2470;49.868;8.660;2022-10-16T02:15:51;1.38;;;1.13;;
4909;SDS011;2470;49.868;8.660;2022-10-16T02:18:17;1.10;;;1.00;;
4909;SDS011;2470;49.868;8.660;2022-10-16T02:20:48;2.65;;;1.05;;
4909;SDS011;2470;49.868;8.660;2022-10-16T02:23:24;1.70;;;1.10;;
4909;SDS011;2470;49.868;8.660;2022-10-16T02:26:17;2.35;;;1.30;;
4909;SDS011;2470;49.868;8.660;2022-10-16T02:28:53;1.42;;;1.33;;
4909;SDS011;2470;49.868;8.660;2022-10-16T02:31:23;2.65;;;1.30;;
4909;SDS011;2470;49.868;8.660;2022-10-16T02:33:52;1.10;;;0.93;;
4909;SDS011;2470;49.868;8.660;2022-10-16T02:36:20;2.70;;;1.42;;
4909;SDS011;2470;49.868;8.660;2022-10-16T02:38:46;1.60;;;1.50;;
4909;SDS011;2470;49.868;8.660;2022-10-16T02:41:12;1.85;;;1.67;;
4909;SDS011;2470;49.868;8.660;2022-10-16T02:43:38;1.52;;;1.42;;
4909;SDS011;2470;49.868;8.660;2022-10-16T02:46:04;2.35;;;2.15;;
4909;SDS011;2470;49.868;8.660;2022-10-16T02:48:29;2.33;;;2.08;;
4909;SDS011;2470;49.868;8.660;2022-10-16T02:50:55;3.80;;;1.85;;
4909;SDS011;2470;49.868;8.660;2022-10-16T02:53:22;3.00;;;2.00;;
4909;SDS011;2470;49.868;8.660;2022-10-16T02:55:47;1.58;;;1.45;;
4909;SDS011;2470;49.868;8.660;2022-10-16T02:58:13;1.60;;;1.27;;
4909;SDS011;2470;49.868;8.660;2022-10-16T03:00:38;2.40;;;2.17;;
4909;SDS011;2470;49.868;8.660;2022-10-16T03:03:04;1.85;;;1.75;;
4909;SDS011;2470;49.868;8.660;2022-10-16T03:05:29;4.03;;;2.55;;
4909;SDS011;2470;49.868;8.660;2022-10-16T03:07:55;2.20;;;1.95;;
4909;SDS011;2470;49.868;8.660;2022-10-16T03:10:21;2.65;;;1.85;;
4909;SDS011;2470;49.868;8.660;2022-10-16T03:12:46;4.47;;;2.25;;
4909;SDS011;2470;49.868;8.660;2022-10-16T03:15:12;5.70;;;2.30;;
4909;SDS011;2470;49.868;8.660;2022-10-16T03:17:37;4.78;;;2.17;;
4909;SDS011;2470;49.868;8.660;2022-10-16T03:20:03;3.08;;;2.30;;
4909;SDS011;2470;49.868;8.660;2022-10-16T03:22:29;4.00;;;2.20;;
4909;SDS011;2470;49.868;8.660;2022-10-16T03:24:54;2.22;;;2.08;;
4909;SDS011;2470;49.868;8.660;2022-10-16T03:27:20;4.65;;;2.45;;
4909;SDS011;2470;49.868;8.660;2022-10-16T03:29:46;3.53;;;2.28;;
4909;SDS011;2470;49.868;8.660;2022-10-16T03:32:11;3.53;;;2.72;;
4909;SDS011;2470;49.868;8.660;2022-10-16T03:34:37;3.25;;;2.63;;
4909;SDS011;2470;49.868;8.660;2022-10-16T03:37:02;4.18;;;1.95;;
4909;SDS011;2470;49.868;8.660;2022-10-16T03:39:28;3.72;;;2.15;;
4909;SDS011;2470;49.868;8.660;2022-10-16T03:41:53;3.35;;;2.35;;
4909;SDS011;2470;49.868;8.660;2022-10-16T03:44:19;4.63;;;2.15;;
4909;SDS011;2470;49.868;8.660;2022-10-16T03:46:44;2.17;;;1.60;;
4909;SDS011;2470;49.868;8.660;2022-10-16T03:49:10;2.22;;;2.00;;
4909;SDS011;2470;49.868;8.660;2022-10-16T03:51:35;4.03;;;2.30;;
4909;SDS011;2470;49.868;8.660;2022-10-16T03:54:01;1.92;;;1.73;;
4909;SDS011;2470;49.868;8.660;2022-10-16T03:56:27;1.70;;;1.60;;
4909;SDS011;2470;49.868;8.660;2022-10-16T03:58:52;3.13;;;2.25;;
4909;SDS011;2470;49.868;8.660;2022-10-16T04:01:18;2.58;;;1.83;;
4909;SDS011;2470;49.868;8.660;2022-10-16T04:03:43;5.13;;;2.38;;
4909;SDS011;2470;49.868;8.660;2022-10-16T04:06:09;3.72;;;2.65;;
4909;SDS011;2470;49.868;8.660;2022-10-16T04:08:34;2.30;;;1.75;;
4909;SDS011;2470;49.868;8.660;2022-10-16T04:11:01;3.95;;;2.55;;
4909;SDS011;2470;49.868;8.660;2022-10-16T04:13:28;1.88;;;1.73;;
4909;SDS011;2470;49.868;8.660;2022-10-16T04:15:53;4.10;;;1.92;;
4909;SDS011;2470;49.868;8.660;2022-10-16T04:18:19;3.60;;;2.17;;
4909;SDS011;2470;49.868;8.660;2022-10-16T04:20:44;2.15;;;1.95;;
4909;SDS011;2470;49.868;8.660;2022-10-16T04:23:10;2.28;;;2.08;;
4909;SDS011;2470;49.868;8.660;2022-10-16T04:25:35;2.30;;;2.10;;
4909;SDS011;2470;49.868;8.660;2022-10-16T04:28:01;2.63;;;1.70;;
4909;SDS011;2470;49.868;8.660;2022-10-16T04:30:27;3.70;;;2.45;;
4909;SDS011;2470;49.868;8.660;2022-10-16T04:32:52;3.33;;;2.17;;
4909;SDS011;2470;49.868;8.660;2022-10-16T04:35:19;3.47;;;2.58;;
4909;SDS011;2470;49.868;8.660;2022-10-16T04:37:46;2.28;;;1.98;;
4909;SDS011;2470;49.868;8.660;2022-10-16T04:40:12;2.58;;;2.35;;
4909;SDS011;2470;49.868;8.660;2022-10-16T04:42:38;2.85;;;2.30;;
4909;SDS011;2470;49.868;8.660;2022-10-16T04:45:04;2.47;;;2.03;;
4909;SDS011;2470;49.868;8.660;2022-10-16T04:47:30;3.72;;;2.40;;
4909;SDS011;2470;49.868;8.660;2022-10-16T04:49:56;2.65;;;2.00;;
4909;SDS011;2470;49.868;8.660;2022-10-16T04:52:21;3.13;;;2.25;;
4909;SDS011;2470;49.868;8.660;2022-10-16T04:54:49;1.92;;;1.83;;
4909;SDS011;2470;49.868;8.660;2022-10-16T04:57:15;2.17;;;1.98;;
4909;SDS011;2470;49.868;8.660;2022-10-16T04:59:41;2.72;;;2.33;;
4909;SDS011;2470;49.868;8.660;2022-10-16T05:02:06;1.85;;;1.70;;
4909;SDS011;2470;49.868;8.660;2022-10-16T05:04:32;2.25;;;2.05;;
4909;SDS011;2470;49.868;8.660;2022-10-16T05:06:57;3.15;;;2.00;;
4909;SDS011;2470;49.868;8.660;2022-10-16T05:09:23;4.28;;;2.45;;
4909;SDS011;2470;49.868;8.660;2022-10-16T05:11:49;2.75;;;2.47;;
4909;SDS011;2470;49.868;8.660;2022-10-16T05:14:14;2.25;;;2.00;;
4909;SDS011;2470;49.868;8.660;2022-10-16T05:16:40;2.88;;;2.15;;
4909;SDS011;2470;49.868;8.660;2022-10-16T05:19:05;2.17;;;1.98;;
4909;SDS011;2470;49.868;8.660;2022-10-16T05:21:31;3.55;;;1.92;;
4909;SDS011;2470;49.868;8.660;2022-10-16T05:23:56;2.53;;;1.98;;
4909;SDS011;2470;49.868;8.660;2022-10-16T05:26:22;2.58;;;1.77;;
4909;SDS011;2470;49.868;8.660;2022-10-16T05:28:48;2.33;;;1.95;;
4909;SDS011;2470;49.868;8.660;2022-10-16T05:31:14;2.50;;;1.90;;
4909;SDS011;2470;49.868;8.660;2022-10-16T05:33:40;3.40;;;2.20;;
4909;SDS011;2470;49.868;8.660;2022-10-16T05:36:06;2.13;;;1.95;;
4909;SDS011;2470;49.868;8.660;2022-10-16T05:38:33;2.88;;;2.08;;
4909;SDS011;2470;49.868;8.660;2022-10-16T05:41:00;1.83;;;1.63;;
4909;SDS011;2470;49.868;8.660;2022-10-16T05:43:27;1.83;;;1.52;;
4909;SDS011;2470;49.868;8.660;2022-10-16T05:46:00;2.50;;;1.98;;
4909;SDS011;2470;49.868;8.660;2022-10-16T05:48:27;2.47;;;2.28;;
4909;SDS011;2470;49.868;8.660;2022-10-16T05:51:01;2.22;;;2.03;;
4909;SDS011;2470;49.868;8.660;2022-10-16T05:53:29;2.45;;;2.20;;
4909;SDS011;2470;49.868;8.660;2022-10-16T05:55:55;3.38;;;2.13;;
4909;SDS011;2470;49.868;8.660;2022-10-16T05:58:21;2.15;;;1.60;;
4909;SDS011;2470;49.868;8.660;2022-10-16T06:03:52;3.50;;;2.10;;
4909;SDS011;2470;49.868;8.660;2022-10-16T06:06:19;3.95;;;2.17;;
4909;SDS011;2470;49.868;8.660;2022-10-16T06:08:46;2.92;;;1.80;;
4909;SDS011;2470;49.868;8.660;2022-10-16T06:11:13;2.20;;;1.92;;
4909;SDS011;2470;49.868;8.660;2022-10-16T06:13:41;2.78;;;2.30;;
4909;SDS011;2470;49.868;8.660;2022-10-16T06:16:08;1.92;;;1.67;;
4909;SDS011;2470;49.868;8.660;2022-10-16T06:18:35;3.05;;;1.60;;
4909;SDS011;2470;49.868;8.660;2022-10-16T06:21:06;2.42;;;1.67;;
4909;SDS011;2470;49.868;8.660;2022-10-16T06:23:33;1.67;;;1.55;;
4909;SDS011;2470;49.868;8.660;2022-10-16T06:26:09;2.70;;;1.75;;
4909;SDS011;2470;49.868;8.660;2022-10-16T06:28:36;2.50;;;1.60;;
4909;SDS011;2470;49.868;8.660;2022-10-16T06:31:03;1.92;;;1.83;;
4909;SDS011;2470;49.868;8.660;2022-10-16T06:33:29;2.60;;;1.90;;
4909;SDS011;2470;49.868;8.660;2022-10-16T06:36:04;1.80;;;1.70;;
4909;SDS011;2470;49.868;8.660;2022-10-16T06:38:33;1.70;;;1.50;;
4909;SDS011;2470;49.868;8.660;2022-10-16T06:40:59;2.63;;;1.88;;
4909;SDS011;2470;49.868;8.660;2022-10-16T06:43:24;10.32;;;1.65;;
4909;SDS011;2470;49.868;8.660;2022-10-16T06:45:53;1.45;;;1.35;;
4909;SDS011;2470;49.868;8.660;2022-10-16T06:48:20;2.22;;;1.55;;
4909;SDS011;2470;49.868;8.660;2022-10-16T06:50:56;2.40;;;2.20;;
4909;SDS011;2470;49.868;8.660;2022-10-16T06:53:30;3.33;;;1.92;;
4909;SDS011;2470;49.868;8.660;2022-10-16T06:55:57;1.30;;;1.20;;
4909;SDS011;2470;49.868;8.660;2022-10-16T06:58:22;2.38;;;1.92;;
4909;SDS011;2470;49.868;8.660;2022-10-16T07:00:48;1.70;;;1.30;;
4909;SDS011;2470;49.868;8.660;2022-10-16T07:03:19;2.25;;;1.63;;
4909;SDS011;2470;49.868;8.660;2022-10-16T07:05:45;2.67;;;1.23;;
4909;SDS011;2470;49.868;8.660;2022-10-16T07:08:10;2.35;;;1.60;;
4909;SDS011;2470;49.868;8.660;2022-10-16T07:10:36;1.75;;;1.40;;
4909;SDS011;2470;49.868;8.660;2022-10-16T07:13:01;1.55;;;1.45;;
4909;SDS011;2470;49.868;8.660;2022-10-16T07:15:27;2.97;;;1.33;;
4909;SDS011;2470;49.868;8.660;2022-10-16T07:17:53;2.63;;;1.40;;
4909;SDS011;2470;49.868;8.660;2022-10-16T07:20:19;2.65;;;1.73;;
4909;SDS011;2470;49.868;8.660;2022-10-16T07:22:44;1.42;;;1.33;;
4909;SDS011;2470;49.868;8.660;2022-10-16T07:25:10;1.50;;;1.20;;
4909;SDS011;2470;49.868;8.660;2022-10-16T07:27:36;1.67;;;1.58;;
4909;SDS011;2470;49.868;8.660;2022-10-16T07:30:02;3.42;;;2.35;;
4909;SDS011;2470;49.868;8.660;2022-10-16T07:32:29;9.38;;;1.33;;
4909;SDS011;2470;49.868;8.660;2022-10-16T07:34:54;1.38;;;1.27;;
4909;SDS011;2470;49.868;8.660;2022-10-16T07:37:20;1.40;;;1.30;;
4909;SDS011;2470;49.868;8.660;2022-10-16T07:39:46;4.88;;;2.03;;
4909;SDS011;2470;49.868;8.660;2022-10-16T07:42:12;1.83;;;1.67;;
4909;SDS011;2470;49.868;8.660;2022-10-16T07:44:37;6.82;;;3.17;;
4909;SDS011;2470;49.868;8.660;2022-10-16T07:47:03;1.88;;;1.33;;
4909;SDS011;2470;49.868;8.660;2022-10-16T07:49:28;6.60;;;1.98;;
4909;SDS011;2470;49.868;8.660;2022-10-16T07:51:54;1.33;;;1.17;;
4909;SDS011;2470;49.868;8.660;2022-10-16T07:54:19;1.83;;;1.50;;
4909;SDS011;2470;49.868;8.660;2022-10-16T07:56:45;2.47;;;1.55;;
4909;SDS011;2470;49.868;8.660;2022-10-16T07:59:10;1.45;;;1.35;;
4909;SDS011;2470;49.868;8.660;2022-10-16T08:01:36;1.83;;;1.50;;
4909;SDS011;2470;49.868;8.660;2022-10-16T08:04:01;1.50;;;1.40;;
4909;SDS011;2470;49.868;8.660;2022-10-16T08:06:27;1.35;;;1.23;;
4909;SDS011;2470;49.868;8.660;2022-10-16T08:08:52;2.75;;;1.50;;
4909;SDS011;2470;49.868;8.660;2022-10-16T08:11:18;5.55;;;3.03;;
4909;SDS011;2470;49.868;8.660;2022-10-16T08:13:44;3.50;;;3.08;;
4909;SDS011;2470;49.868;8.660;2022-10-16T08:16:10;3.80;;;1.90;;
4909;SDS011;2470;49.868;8.660;2022-10-16T08:18:36;1.83;;;1.70;;
4909;SDS011;2470;49.868;8.660;2022-10-16T08:21:03;2.50;;;2.13;;
4909;SDS011;2470;49.868;8.660;2022-10-16T08:23:29;1.65;;;1.30;;
4909;SDS011;2470;49.868;8.660;2022-10-16T08:25:56;2.03;;;1.38;;
4909;SDS011;2470;49.868;8.660;2022-10-16T08:28:26;1.92;;;1.70;;
4909;SDS011;2470;49.868;8.660;2022-10-16T08:30:52;1.60;;;1.50;;
4909;SDS011;2470;49.868;8.660;2022-10-16T08:33:17;1.40;;;1.30;;
4909;SDS011;2470;49.868;8.660;2022-10-16T08:35:43;1.88;;;1.38;;
4909;SDS011;2470;49.868;8.660;2022-10-16T08:38:16;2.00;;;1.63;;
4909;SDS011;2470;49.868;8.660;2022-10-16T08:40:41;1.40;;;1.30;;
4909;SDS011;2470;49.868;8.660;2022-10-16T08:50:49;1.98;;;1.77;;
4909;SDS011;2470;49.868;8.660;2022-10-16T08:53:49;1.67;;;1.50;;
4909;SDS011;2470;49.868;8.660;2022-10-16T08:56:10;1.70;;;1.60;;
4909;SDS011;2470;49.868;8.660;2022-10-16T08:58:35;2.05;;;1.35;;
4909;SDS011;2470;49.868;8.660;2022-10-16T09:01:03;2.85;;;1.70;;
4909;SDS011;2470;49.868;8.660;2022-10-16T09:14:45;1.67;;;1.58;;
4909;SDS011;2470;49.868;8.660;2022-10-16T09:17:17;1.80;;;1.70;;
4909;SDS011;2470;49.868;8.660;2022-10-16T09:25:28;2.60;;;1.98;;
4909;SDS011;2470;49.868;8.660;2022-10-16T09:27:54;1.50;;;1.40;;
4909;SDS011;2470;49.868;8.660;2022-10-16T09:30:21;1.50;;;1.40;;
4909;SDS011;2470;49.868;8.660;2022-10-16T09:32:48;1.58;;;1.48;;
4909;SDS011;2470;49.868;8.660;2022-10-16T09:35:20;2.50;;;1.75;;
4909;SDS011;2470;49.868;8.660;2022-10-16T09:37:50;2.25;;;1.70;;
4909;SDS011;2470;49.868;8.660;2022-10-16T09:40:31;2.97;;;1.67;;
4909;SDS011;2470;49.868;8.660;2022-10-16T09:43:14;1.55;;;1.30;;
4909;SDS011;2470;49.868;8.660;2022-10-16T09:45:55;1.63;;;1.48;;
4909;SDS011;2470;49.868;8.660;2022-10-16T09:48:23;1.70;;;1.60;;
4909;SDS011;2470;49.868;8.660;2022-10-16T09:50:55;1.73;;;1.63;;
4909;SDS011;2470;49.868;8.660;2022-10-16T09:53:22;1.50;;;1.40;;
4909;SDS011;2470;49.868;8.660;2022-10-16T09:55:49;1.67;;;1.58;;
4909;SDS011;2470;49.868;8.660;2022-10-16T09:58:15;4.72;;;1.80;;
4909;SDS011;2470;49.868;8.660;2022-10-16T10:00:41;1.58;;;1.48;;
4909;SDS011;2470;49.868;8.660;2022-10-16T10:03:15;2.35;;;1.77;;
4909;SDS011;2470;49.868;8.660;2022-10-16T10:06:15;10.00;;;1.60;;
4909;SDS011;2470;49.868;8.660;2022-10-16T10:11:47;1.52;;;1.42;;
4909;SDS011;2470;49.868;8.660;2022-10-16T10:16:46;1.50;;;1.40;;
4909;SDS011;2470;49.868;8.660;2022-10-16T10:19:14;5.00;;;2.45;;
4909;SDS011;2470;49.868;8.660;2022-10-16T10:21:41;1.70;;;1.58;;
4909;SDS011;2470;49.868;8.660;2022-10-16T10:24:10;1.95;;;1.23;;
4909;SDS011;2470;49.868;8.660;2022-10-16T10:26:45;1.83;;;1.63;;
4909;SDS011;2470;49.868;8.660;2022-10-16T10:29:30;1.70;;;1.60;;
4909;SDS011;2470;49.868;8.660;2022-10-16T10:32:03;3.15;;;1.20;;
4909;SDS011;2470;49.868;8.660;2022-10-16T10:37:18;1.30;;;1.08;;
4909;SDS011;2470;49.868;8.660;2022-10-16T10:40:23;1.52;;;1.42;;
4909;SDS011;2470;49.868;8.660;2022-10-16T10:43:13;1.67;;;1.45;;
4909;SDS011;2470;49.868;8.660;2022-10-16T10:46:03;1.65;;;1.50;;
4909;SDS011;2470;49.868;8.660;2022-10-16T10:51:12;1.35;;;1.25;;
4909;SDS011;2470;49.868;8.660;2022-10-16T10:59:37;3.10;;;1.27;;
4909;SDS011;2470;49.868;8.660;2022-10-16T11:02:41;1.45;;;1.35;;
4909;SDS011;2470;49.868;8.660;2022-10-16T11:11:08;2.13;;;1.50;;
4909;SDS011;2470;49.868;8.660;2022-10-16T11:16:28;5.15;;;1.90;;
4909;SDS011;2470;49.868;8.660;2022-10-16T11:19:02;3.25;;;1.55;;
4909;SDS011;2470;49.868;8.660;2022-10-16T11:21:51;2.28;;;1.52;;
4909;SDS011;2470;49.868;8.660;2022-10-16T11:24:30;1.27;;;1.17;;
4909;SDS011;2470;49.868;8.660;2022-10-16T11:27:03;12.40;;;1.58;;
4909;SDS011;2470;49.868;8.660;2022-10-16T11:29:32;2.10;;;1.63;;
4909;SDS011;2470;49.868;8.660;2022-10-16T11:32:13;2.08;;;1.67;;
4909;SDS011;2470;49.868;8.660;2022-10-16T11:34:53;3.88;;;2.25;;
4909;SDS011;2470;49.868;8.660;2022-10-16T11:37:25;1.40;;;1.30;;
4909;SDS011;2470;49.868;8.660;2022-10-16T11:40:22;3.30;;;1.35;;
4909;SDS011;2470;49.868;8.660;2022-10-16T11:42:50;1.40;;;1.20;;
4909;SDS011;2470;49.868;8.660;2022-10-16T11:45:26;3.47;;;1.55;;
4909;SDS011;2470;49.868;8.660;2022-10-16T11:51:25;3.17;;;1.70;;
4909;SDS011;2470;49.868;8.660;2022-10-16T11:53:59;1.23;;;0.93;;
4909;SDS011;2470;49.868;8.660;2022-10-16T11:56:39;1.90;;;1.20;;
4909;SDS011;2470;49.868;8.660;2022-10-16T12:02:07;1.92;;;1.65;;
4909;SDS011;2470;49.868;8.660;2022-10-16T12:04:44;1.67;;;1.58;;
4909;SDS011;2470;49.868;8.660;2022-10-16T12:07:17;1.40;;;1.10;;
4909;SDS011;2470;49.868;8.660;2022-10-16T12:09:46;1.42;;;1.17;;
4909;SDS011;2470;49.868;8.660;2022-10-16T12:12:25;3.88;;;1.83;;
4909;SDS011;2470;49.868;8.660;2022-10-16T12:17:35;0.90;;;0.90;;
4909;SDS011;2470;49.868;8.660;2022-10-16T12:22:37;1.00;;;1.00;;
4909;SDS011;2470;49.868;8.660;2022-10-16T12:25:53;1.73;;;1.20;;
4909;SDS011;2470;49.868;8.660;2022-10-16T12:27:59;1.27;;;1.10;;
4909;SDS011;2470;49.868;8.660;2022-10-16T12:30:31;1.10;;;1.10;;
4909;SDS011;2470;49.868;8.660;2022-10-16T12:33:00;1.17;;;1.05;;
4909;SDS011;2470;49.868;8.660;2022-10-16T12:35:47;1.48;;;1.13;;
4909;SDS011;2470;49.868;8.660;2022-10-16T12:41:08;1.25;;;1.15;;
4909;SDS011;2470;49.868;8.660;2022-10-16T12:46:06;1.00;;;1.00;;
4909;SDS011;2470;49.868;8.660;2022-10-16T12:48:47;1.42;;;1.33;;
4909;SDS011;2470;49.868;8.660;2022-10-16T12:51:33;1.63;;;1.20;;
4909;SDS011;2470;49.868;8.660;2022-10-16T12:56:56;1.55;;;1.30;;
4909;SDS011;2470;49.868;8.660;2022-10-16T13:08:17;2.00;;;1.48;;
4909;SDS011;2470;49.868;8.660;2022-10-16T13:11:19;1.80;;;1.65;;
4909;SDS011;2470;49.868;8.660;2022-10-16T13:14:16;1.88;;;1.70;;
4909;SDS011;2470;49.868;8.660;2022-10-16T13:19:58;2.78;;;1.40;;
4909;SDS011;2470;49.868;8.660;2022-10-16T13:28:00;1.70;;;1.50;;
4909;SDS011;2470;49.868;8.660;2022-10-16T13:30:30;3.90;;;1.48;;
4909;SDS011;2470;49.868;8.660;2022-10-16T13:33:06;1.45;;;1.35;;
4909;SDS011;2470;49.868;8.660;2022-10-16T13:35:46;2.60;;;1.48;;
4909;SDS011;2470;49.868;8.660;2022-10-16T13:38:15;5.60;;;2.08;;
4909;SDS011;2470;49.868;8.660;2022-10-16T13:43:17;1.45;;;1.35;;
4909;SDS011;2470;49.868;8.660;2022-10-16T13:45:52;3.20;;;1.02;;
4909;SDS011;2470;49.868;8.660;2022-10-16T13:48:19;2.95;;;1.60;;
4909;SDS011;2470;49.868;8.660;2022-10-16T13:50:44;1.48;;;1.35;;
4909;SDS011;2470;49.868;8.660;2022-10-16T13:53:13;1.83;;;1.70;;
4909;SDS011;2470;49.868;8.660;2022-10-16T13:55:40;4.30;;;2.28;;
4909;SDS011;2470;49.868;8.660;2022-10-16T13:58:11;2.08;;;1.73;;
4909;SDS011;2470;49.868;8.660;2022-10-16T14:00:38;5.72;;;1.70;;
4909;SDS011;2470;49.868;8.660;2022-10-16T14:03:05;2.25;;;1.52;;
4909;SDS011;2470;49.868;8.660;2022-10-16T14:05:42;3.15;;;1.98;;
4909;SDS011;2470;49.868;8.660;2022-10-16T14:08:12;1.67;;;1.58;;
4909;SDS011;2470;49.868;8.660;2022-10-16T14:10:38;1.90;;;1.52;;
4909;SDS011;2470;49.868;8.660;2022-10-16T14:13:05;4.35;;;2.00;;
4909;SDS011;2470;49.868;8.660;2022-10-16T14:15:32;2.38;;;2.05;;
4909;SDS011;2470;49.868;8.660;2022-10-16T14:18:00;1.80;;;1.70;;
4909;SDS011;2470;49.868;8.660;2022-10-16T14:20:26;1.70;;;1.60;;
4909;SDS011;2470;49.868;8.660;2022-10-16T14:22:59;2.85;;;1.75;;
4909;SDS011;2470;49.868;8.660;2022-10-16T14:25:27;3.33;;;1.70;;
4909;SDS011;2470;49.868;8.660;2022-10-16T14:30:24;1.90;;;1.80;;
4909;SDS011;2470;49.868;8.660;2022-10-16T14:32:57;2.25;;;2.05;;
4909;SDS011;2470;49.868;8.660;2022-10-16T14:35:32;1.63;;;1.40;;
4909;SDS011;2470;49.868;8.660;2022-10-16T14:38:02;3.25;;;1.48;;
4909;SDS011;2470;49.868;8.660;2022-10-16T14:40:31;1.65;;;1.55;;
4909;SDS011;2470;49.868;8.660;2022-10-16T14:42:58;2.22;;;1.77;;
4909;SDS011;2470;49.868;8.660;2022-10-16T14:45:27;1.60;;;1.50;;
4909;SDS011;2470;49.868;8.660;2022-10-16T14:48:01;5.22;;;1.58;;
4909;SDS011;2470;49.868;8.660;2022-10-16T14:50:30;5.78;;;1.75;;
4909;SDS011;2470;49.868;8.660;2022-10-16T14:52:56;1.88;;;1.55;;
4909;SDS011;2470;49.868;8.660;2022-10-16T14:55:22;1.55;;;1.38;;
4909;SDS011;2470;49.868;8.660;2022-10-16T14:57:49;2.05;;;1.67;;
4909;SDS011;2470;49.868;8.660;2022-10-16T15:00:15;4.20;;;1.90;;
4909;SDS011;2470;49.868;8.660;2022-10-16T15:02:46;3.45;;;1.60;;
4909;SDS011;2470;49.868;8.660;2022-10-16T15:07:49;2.65;;;2.28;;
4909;SDS011;2470;49.868;8.660;2022-10-16T15:10:16;3.60;;;2.13;;
4909;SDS011;2470;49.868;8.660;2022-10-16T15:12:43;2.53;;;2.25;;
4909;SDS011;2470;49.868;8.660;2022-10-16T15:15:15;2.03;;;1.90;;
4909;SDS011;2470;49.868;8.660;2022-10-16T15:17:48;3.22;;;1.83;;
4909;SDS011;2470;49.868;8.660;2022-10-16T15:20:17;2.20;;;2.00;;
4909;SDS011;2470;49.868;8.660;2022-10-16T15:22:43;2.45;;;2.22;;
4909;SDS011;2470;49.868;8.660;2022-10-16T15:27:59;5.15;;;2.33;;
4909;SDS011;2470;49.868;8.660;2022-10-16T15:30:26;2.92;;;1.90;;
4909;SDS011;2470;49.868;8.660;2022-10-16T15:32:52;7.88;;;2.03;;
4909;SDS011;2470;49.868;8.660;2022-10-16T15:35:18;1.73;;;1.63;;
4909;SDS011;2470;49.868;8.660;2022-10-16T15:37:44;1.73;;;1.63;;
4909;SDS011;2470;49.868;8.660;2022-10-16T15:40:10;1.50;;;1.40;;
4909;SDS011;2470;49.868;8.660;2022-10-16T15:42:36;3.38;;;2.25;;
4909;SDS011;2470;49.868;8.660;2022-10-16T15:45:02;2.00;;;1.70;;
4909;SDS011;2470;49.868;8.660;2022-10-16T15:47:29;2.22;;;2.03;;
4909;SDS011;2470;49.868;8.660;2022-10-16T15:49:54;1.83;;;1.67;;
4909;SDS011;2470;49.868;8.660;2022-10-16T15:52:20;2.70;;;1.65;;
4909;SDS011;2470;49.868;8.660;2022-10-16T15:54:45;1.55;;;1.42;;
4909;SDS011;2470;49.868;8.660;2022-10-16T15:57:11;2.42;;;1.63;;
4909;SDS011;2470;49.868;8.660;2022-10-16T15:59:36;2.40;;;2.20;;
4909;SDS011;2470;49.868;8.660;2022-10-16T16:02:02;2.10;;;1.90;;
4909;SDS011;2470;49.868;8.660;2022-10-16T16:04:30;2.55;;;1.77;;
4909;SDS011;2470;49.868;8.660;2022-10-16T16:06:56;3.67;;;2.13;;
4909;SDS011;2470;49.868;8.660;2022-10-16T16:09:21;2.45;;;1.98;;
4909;SDS011;2470;49.868;8.660;2022-10-16T16:11:48;2.08;;;1.88;;
4909;SDS011;2470;49.868;8.660;2022-10-16T16:14:14;1.80;;;1.70;;
4909;SDS011;2470;49.868;8.660;2022-10-16T16:16:40;1.50;;;1.40;;
4909;SDS011;2470;49.868;8.660;2022-10-16T16:19:07;3.05;;;2.15;;
4909;SDS011;2470;49.868;8.660;2022-10-16T16:21:34;2.15;;;1.95;;
4909;SDS011;2470;49.868;8.660;2022-10-16T16:23:59;2.30;;;1.85;;
4909;SDS011;2470;49.868;8.660;2022-10-16T16:26:26;3.88;;;3.08;;
4909;SDS011;2470;49.868;8.660;2022-10-16T16:28:56;9.73;;;2.75;;
4909;SDS011;2470;49.868;8.660;2022-10-16T16:31:25;5.85;;;3.22;;
4909;SDS011;2470;49.868;8.660;2022-10-16T16:33:52;6.60;;;3.55;;
4909;SDS011;2470;49.868;8.660;2022-10-16T16:36:18;4.13;;;2.65;;
4909;SDS011;2470;49.868;8.660;2022-10-16T16:38:44;3.83;;;2.20;;
4909;SDS011;2470;49.868;8.660;2022-10-16T16:41:17;7.65;;;2.83;;
4909;SDS011;2470;49.868;8.660;2022-10-16T16:43:44;4.30;;;2.28;;
4909;SDS011;2470;49.868;8.660;2022-10-16T16:46:10;3.20;;;2.15;;
4909;SDS011;2470;49.868;8.660;2022-10-16T16:48:37;3.03;;;2.25;;
4909;SDS011;2470;49.868;8.660;2022-10-16T16:51:12;4.00;;;2.45;;
4909;SDS011;2470;49.868;8.660;2022-10-16T16:53:44;3.00;;;2.42;;
4909;SDS011;2470;49.868;8.660;2022-10-16T16:56:11;3.15;;;2.45;;
4909;SDS011;2470;49.868;8.660;2022-10-16T16:58:36;2.92;;;2.13;;
4909;SDS011;2470;49.868;8.660;2022-10-16T17:01:02;3.05;;;2.55;;
4909;SDS011;2470;49.868;8.660;2022-10-16T17:03:28;2.05;;;1.80;;
4909;SDS011;2470;49.868;8.660;2022-10-16T17:05:56;4.45;;;2.30;;
4909;SDS011;2470;49.868;8.660;2022-10-16T17:08:22;2.63;;;2.05;;
4909;SDS011;2470;49.868;8.660;2022-10-16T17:10:48;2.20;;;1.95;;
4909;SDS011;2470;49.868;8.660;2022-10-16T17:13:17;1.95;;;1.73;;
4909;SDS011;2470;49.868;8.660;2022-10-16T17:15:46;9.32;;;2.20;;
4909;SDS011;2470;49.868;8.660;2022-10-16T17:18:13;2.28;;;1.77;;
4909;SDS011;2470;49.868;8.660;2022-10-16T17:20:38;2.92;;;2.22;;
4909;SDS011;2470;49.868;8.660;2022-10-16T17:23:04;9.10;;;1.98;;
4909;SDS011;2470;49.868;8.660;2022-10-16T17:25:30;2.55;;;1.55;;